GLD1620 TNCM-MDPP
Flight info
| Callsign | GLD1620 |
|---|---|
| Flight time | 1h 13m |
| Altitude | 34000 |
| Route | MODOR2 GOUDA L577 ANTEX PIXAR UW10 ASIVO POKEG POKE3S |
| Aircraft | A20N/M-SDE2E3FGHIRWXY/LB1 |
Departure
| Time | 2026-05-03 20:15 |
|---|---|
| Airport | Princess Juliana International Airport (TNCM) |
Arrival
| Time | 2026-05-03 21:28 |
|---|---|
| Airport | Gregorio Luperon International Airport (MDPP) |
| Time | Latitude | Longitude | Altitude | Speed | Heading |
|---|---|---|---|---|---|
| 2026-05-03 20:15 | 17.82322 | -63.11772 | 10952 ft | 312 kts | 253° |
| 2026-05-03 20:15 | 17.82130 | -63.14110 | 11163 ft | 335 kts | 277° |
| 2026-05-03 20:15 | 17.82847 | -63.16493 | 11448 ft | 353 kts | 300° |
| 2026-05-03 20:15 | 17.84389 | -63.18490 | 12094 ft | 356 kts | 316° |
| 2026-05-03 20:16 | 17.86233 | -63.20279 | 12839 ft | 359 kts | 314° |
| 2026-05-03 20:16 | 17.87744 | -63.22332 | 13522 ft | 362 kts | 300° |
| 2026-05-03 20:16 | 17.88764 | -63.24778 | 14177 ft | 365 kts | 287° |
| 2026-05-03 20:16 | 17.89363 | -63.27361 | 14835 ft | 366 kts | 280° |
| 2026-05-03 20:17 | 17.89740 | -63.30017 | 15497 ft | 367 kts | 277° |
| 2026-05-03 20:17 | 17.90021 | -63.32687 | 16131 ft | 369 kts | 276° |
| 2026-05-03 20:17 | 17.90276 | -63.35380 | 16781 ft | 371 kts | 276° |
| 2026-05-03 20:17 | 17.90532 | -63.38071 | 17409 ft | 372 kts | 276° |
| 2026-05-03 20:18 | 17.90790 | -63.40717 | 17960 ft | 375 kts | 276° |
| 2026-05-03 20:18 | 17.91066 | -63.43487 | 18524 ft | 378 kts | 276° |
| 2026-05-03 20:18 | 17.91345 | -63.46250 | 18987 ft | 382 kts | 276° |
| 2026-05-03 20:18 | 17.91629 | -63.49063 | 19473 ft | 385 kts | 276° |
| 2026-05-03 20:19 | 17.91909 | -63.51828 | 19948 ft | 388 kts | 276° |
| 2026-05-03 20:19 | 17.92199 | -63.54699 | 20411 ft | 391 kts | 277° |
| 2026-05-03 20:19 | 17.92481 | -63.57487 | 20872 ft | 395 kts | 277° |
| 2026-05-03 20:19 | 17.92773 | -63.60393 | 21339 ft | 398 kts | 277° |
| 2026-05-03 20:20 | 17.93063 | -63.63286 | 21796 ft | 402 kts | 277° |
| 2026-05-03 20:20 | 17.93360 | -63.66209 | 22230 ft | 405 kts | 278° |
| 2026-05-03 20:20 | 17.93858 | -63.69145 | 22666 ft | 408 kts | 282° |
| 2026-05-03 20:20 | 17.94418 | -63.72073 | 23112 ft | 412 kts | 282° |
| 2026-05-03 20:21 | 17.94977 | -63.75023 | 23529 ft | 416 kts | 282° |
| 2026-05-03 20:21 | 17.95522 | -63.77912 | 23890 ft | 419 kts | 282° |
| 2026-05-03 20:21 | 17.96105 | -63.81019 | 24305 ft | 421 kts | 282° |
| 2026-05-03 20:21 | 17.96675 | -63.84050 | 24657 ft | 425 kts | 282° |
| 2026-05-03 20:22 | 17.97248 | -63.87106 | 25051 ft | 427 kts | 282° |
| 2026-05-03 20:22 | 17.97823 | -63.90170 | 25406 ft | 430 kts | 282° |
| 2026-05-03 20:22 | 17.98403 | -63.93267 | 25757 ft | 432 kts | 282° |
| 2026-05-03 20:22 | 17.98983 | -63.96369 | 26119 ft | 435 kts | 282° |
| 2026-05-03 20:23 | 17.99566 | -63.99483 | 26454 ft | 438 kts | 282° |
| 2026-05-03 20:23 | 18.00156 | -64.02641 | 26789 ft | 440 kts | 282° |
| 2026-05-03 20:23 | 18.00748 | -64.05812 | 27118 ft | 443 kts | 282° |
| 2026-05-03 20:23 | 18.01333 | -64.08954 | 27436 ft | 446 kts | 282° |
| 2026-05-03 20:24 | 18.01930 | -64.12156 | 27762 ft | 448 kts | 282° |
| 2026-05-03 20:24 | 18.02535 | -64.15409 | 28072 ft | 450 kts | 282° |
| 2026-05-03 20:24 | 18.03156 | -64.18746 | 28390 ft | 453 kts | 282° |
| 2026-05-03 20:24 | 18.03752 | -64.21957 | 28705 ft | 455 kts | 282° |
| 2026-05-03 20:25 | 18.04359 | -64.25231 | 28995 ft | 458 kts | 282° |
| 2026-05-03 20:25 | 18.04975 | -64.28556 | 29280 ft | 460 kts | 282° |
| 2026-05-03 20:25 | 18.05581 | -64.31824 | 29565 ft | 462 kts | 282° |
| 2026-05-03 20:25 | 18.06193 | -64.35132 | 29874 ft | 464 kts | 282° |
| 2026-05-03 20:26 | 18.06814 | -64.38489 | 30160 ft | 466 kts | 282° |
| 2026-05-03 20:26 | 18.07433 | -64.41838 | 30424 ft | 468 kts | 282° |
| 2026-05-03 20:26 | 18.08052 | -64.45193 | 30706 ft | 469 kts | 282° |
| 2026-05-03 20:26 | 18.08674 | -64.48565 | 31011 ft | 470 kts | 282° |
| 2026-05-03 20:27 | 18.09296 | -64.51945 | 31339 ft | 470 kts | 282° |
| 2026-05-03 20:27 | 18.09916 | -64.55313 | 31704 ft | 469 kts | 282° |
| 2026-05-03 20:27 | 18.10525 | -64.58630 | 32119 ft | 467 kts | 282° |
| 2026-05-03 20:27 | 18.11139 | -64.61975 | 32516 ft | 465 kts | 282° |
| 2026-05-03 20:28 | 18.11752 | -64.65316 | 32899 ft | 464 kts | 282° |
| 2026-05-03 20:28 | 18.12357 | -64.68623 | 33265 ft | 462 kts | 282° |
| 2026-05-03 20:28 | 18.12964 | -64.71941 | 33629 ft | 461 kts | 282° |
| 2026-05-03 20:28 | 18.13562 | -64.75208 | 33843 ft | 460 kts | 282° |
| 2026-05-03 20:29 | 18.14165 | -64.78512 | 33941 ft | 458 kts | 282° |
| 2026-05-03 20:29 | 18.15363 | -64.85081 | 33993 ft | 457 kts | 282° |
| 2026-05-03 20:30 | 18.16548 | -64.91589 | 33996 ft | 457 kts | 282° |
| 2026-05-03 20:30 | 18.17713 | -64.98183 | 33989 ft | 457 kts | 279° |
| 2026-05-03 20:31 | 18.18425 | -65.04828 | 34000 ft | 457 kts | 277° |
| 2026-05-03 20:31 | 18.19144 | -65.11475 | 34007 ft | 458 kts | 277° |
| 2026-05-03 20:32 | 18.19872 | -65.18229 | 34000 ft | 458 kts | 277° |
| 2026-05-03 20:32 | 18.20580 | -65.24837 | 34000 ft | 457 kts | 277° |
| 2026-05-03 20:33 | 18.21298 | -65.31590 | 33991 ft | 458 kts | 277° |
| 2026-05-03 20:33 | 18.22009 | -65.38280 | 34008 ft | 458 kts | 277° |
| 2026-05-03 20:34 | 18.22715 | -65.44939 | 34003 ft | 457 kts | 277° |
| 2026-05-03 20:34 | 18.23417 | -65.51589 | 34007 ft | 458 kts | 277° |
| 2026-05-03 20:35 | 18.24118 | -65.58250 | 34005 ft | 459 kts | 277° |
| 2026-05-03 20:35 | 18.24815 | -65.64907 | 33998 ft | 457 kts | 277° |
| 2026-05-03 20:36 | 18.25395 | -65.70465 | 33997 ft | 457 kts | 277° |
| 2026-05-03 20:36 | 18.26090 | -65.77140 | 33988 ft | 458 kts | 277° |
| 2026-05-03 20:37 | 18.26780 | -65.83788 | 33980 ft | 458 kts | 277° |
| 2026-05-03 20:37 | 18.27470 | -65.90466 | 33985 ft | 459 kts | 277° |
| 2026-05-03 20:38 | 18.28159 | -65.97158 | 33987 ft | 459 kts | 277° |
| 2026-05-03 20:38 | 18.28844 | -66.03816 | 33973 ft | 458 kts | 277° |
| 2026-05-03 20:39 | 18.29523 | -66.10438 | 33981 ft | 458 kts | 277° |
| 2026-05-03 20:39 | 18.30194 | -66.17012 | 33977 ft | 459 kts | 277° |
| 2026-05-03 20:40 | 18.30869 | -66.23663 | 33973 ft | 458 kts | 277° |
| 2026-05-03 20:40 | 18.31542 | -66.30316 | 33986 ft | 459 kts | 277° |
| 2026-05-03 20:41 | 18.32212 | -66.36951 | 33976 ft | 459 kts | 276° |
| 2026-05-03 20:41 | 18.32882 | -66.43623 | 33984 ft | 458 kts | 276° |
| 2026-05-03 20:42 | 18.33548 | -66.50266 | 33986 ft | 459 kts | 276° |
| 2026-05-03 20:42 | 18.34209 | -66.56880 | 33979 ft | 458 kts | 276° |
| 2026-05-03 20:43 | 18.34871 | -66.63538 | 33983 ft | 458 kts | 276° |
| 2026-05-03 20:43 | 18.35532 | -66.70199 | 33976 ft | 458 kts | 276° |
| 2026-05-03 20:44 | 18.36191 | -66.76875 | 33986 ft | 457 kts | 276° |
| 2026-05-03 20:44 | 18.36850 | -66.83568 | 33985 ft | 458 kts | 276° |
| 2026-05-03 20:45 | 18.37504 | -66.90238 | 33982 ft | 457 kts | 276° |
| 2026-05-03 20:45 | 18.38155 | -66.96898 | 33987 ft | 458 kts | 276° |
| 2026-05-03 20:46 | 18.38805 | -67.03573 | 33982 ft | 458 kts | 276° |
| 2026-05-03 20:46 | 18.39450 | -67.10223 | 33980 ft | 457 kts | 276° |
| 2026-05-03 20:47 | 18.40090 | -67.16842 | 34000 ft | 457 kts | 276° |
| 2026-05-03 20:47 | 18.40731 | -67.23500 | 33986 ft | 457 kts | 276° |
| 2026-05-03 20:48 | 18.41370 | -67.30157 | 33977 ft | 457 kts | 276° |
| 2026-05-03 20:48 | 18.42006 | -67.36817 | 33982 ft | 458 kts | 276° |
| 2026-05-03 20:49 | 18.42642 | -67.43489 | 33985 ft | 458 kts | 276° |
| 2026-05-03 20:49 | 18.43275 | -67.50160 | 33982 ft | 458 kts | 276° |
| 2026-05-03 20:50 | 18.43902 | -67.56794 | 33977 ft | 458 kts | 276° |
| 2026-05-03 20:50 | 18.44531 | -67.63474 | 33977 ft | 458 kts | 276° |
| 2026-05-03 20:51 | 18.45158 | -67.70156 | 33983 ft | 458 kts | 276° |
| 2026-05-03 20:51 | 18.45781 | -67.76828 | 33988 ft | 458 kts | 276° |
| 2026-05-03 20:52 | 18.46403 | -67.83502 | 33980 ft | 458 kts | 276° |
| 2026-05-03 20:52 | 18.47023 | -67.90182 | 33979 ft | 458 kts | 276° |
| 2026-05-03 20:53 | 18.47851 | -67.96857 | 33978 ft | 457 kts | 284° |
| 2026-05-03 20:53 | 18.50390 | -68.02911 | 33976 ft | 457 kts | 303° |
| 2026-05-03 20:54 | 18.54377 | -68.08118 | 33966 ft | 457 kts | 309° |
| 2026-05-03 20:54 | 18.60525 | -68.15881 | 33976 ft | 457 kts | 309° |
| 2026-05-03 20:55 | 18.64597 | -68.21029 | 33979 ft | 457 kts | 309° |
| 2026-05-03 20:55 | 18.68638 | -68.26140 | 33984 ft | 457 kts | 309° |
| 2026-05-03 20:56 | 18.72707 | -68.31290 | 33999 ft | 457 kts | 309° |
| 2026-05-03 20:56 | 18.76807 | -68.36485 | 33993 ft | 457 kts | 309° |
| 2026-05-03 20:57 | 18.80843 | -68.41603 | 33991 ft | 457 kts | 309° |
| 2026-05-03 20:57 | 18.84921 | -68.46776 | 33981 ft | 457 kts | 309° |
| 2026-05-03 20:58 | 18.88976 | -68.51926 | 33976 ft | 456 kts | 309° |
| 2026-05-03 20:58 | 18.93024 | -68.57072 | 33988 ft | 456 kts | 309° |
| 2026-05-03 20:59 | 18.97085 | -68.62236 | 33976 ft | 456 kts | 309° |
| 2026-05-03 20:59 | 19.01125 | -68.67381 | 33972 ft | 455 kts | 309° |
| 2026-05-03 21:00 | 19.04511 | -68.71695 | 33967 ft | 455 kts | 309° |
| 2026-05-03 21:00 | 19.09198 | -68.77671 | 33968 ft | 454 kts | 308° |
| 2026-05-03 21:01 | 19.13219 | -68.82803 | 33966 ft | 454 kts | 309° |
| 2026-05-03 21:01 | 19.17630 | -68.87604 | 33956 ft | 454 kts | 314° |
| 2026-05-03 21:02 | 19.22156 | -68.92277 | 33952 ft | 454 kts | 314° |
| 2026-05-03 21:02 | 19.26633 | -68.96914 | 33955 ft | 454 kts | 314° |
| 2026-05-03 21:03 | 19.31144 | -69.01591 | 33963 ft | 454 kts | 314° |
| 2026-05-03 21:03 | 19.35684 | -69.06300 | 33960 ft | 454 kts | 314° |
| 2026-05-03 21:04 | 19.40196 | -69.10984 | 33944 ft | 454 kts | 314° |
| 2026-05-03 21:04 | 19.44679 | -69.15642 | 33369 ft | 452 kts | 314° |
| 2026-05-03 21:05 | 19.46935 | -69.17988 | 32543 ft | 456 kts | 314° |
| 2026-05-03 21:05 | 19.49178 | -69.20322 | 31869 ft | 456 kts | 314° |
| 2026-05-03 21:05 | 19.51425 | -69.22660 | 31282 ft | 452 kts | 315° |
| 2026-05-03 21:05 | 19.53659 | -69.24986 | 30698 ft | 450 kts | 315° |
| 2026-05-03 21:06 | 19.55880 | -69.27299 | 30107 ft | 448 kts | 315° |
| 2026-05-03 21:06 | 19.58096 | -69.29608 | 29477 ft | 445 kts | 315° |
| 2026-05-03 21:06 | 19.60285 | -69.31888 | 28889 ft | 441 kts | 315° |
| 2026-05-03 21:06 | 19.62479 | -69.34176 | 28290 ft | 437 kts | 315° |
| 2026-05-03 21:07 | 19.64634 | -69.36424 | 27721 ft | 434 kts | 315° |
| 2026-05-03 21:07 | 19.66778 | -69.38660 | 27142 ft | 431 kts | 315° |
| 2026-05-03 21:07 | 19.68903 | -69.40879 | 26593 ft | 428 kts | 315° |
| 2026-05-03 21:07 | 19.70987 | -69.43055 | 26063 ft | 425 kts | 315° |
| 2026-05-03 21:08 | 19.73073 | -69.45234 | 25529 ft | 422 kts | 315° |
| 2026-05-03 21:08 | 19.75156 | -69.47411 | 25002 ft | 419 kts | 315° |
| 2026-05-03 21:08 | 19.77207 | -69.49554 | 24492 ft | 416 kts | 315° |
| 2026-05-03 21:08 | 19.79297 | -69.51741 | 23979 ft | 414 kts | 315° |
| 2026-05-03 21:09 | 19.81343 | -69.53882 | 23462 ft | 411 kts | 315° |
| 2026-05-03 21:09 | 19.83361 | -69.55994 | 22942 ft | 407 kts | 314° |
| 2026-05-03 21:09 | 19.85364 | -69.58090 | 22442 ft | 402 kts | 314° |
| 2026-05-03 21:09 | 19.87351 | -69.60171 | 21912 ft | 399 kts | 314° |
| 2026-05-03 21:10 | 19.89317 | -69.62231 | 21420 ft | 395 kts | 314° |
| 2026-05-03 21:10 | 19.91255 | -69.64263 | 20927 ft | 391 kts | 314° |
| 2026-05-03 21:10 | 19.93175 | -69.66275 | 20442 ft | 387 kts | 314° |
| 2026-05-03 21:10 | 19.95040 | -69.68260 | 19976 ft | 383 kts | 311° |
| 2026-05-03 21:11 | 19.96718 | -69.70461 | 19496 ft | 379 kts | 303° |
| 2026-05-03 21:11 | 19.98111 | -69.72783 | 19043 ft | 375 kts | 301° |
| 2026-05-03 21:11 | 19.99488 | -69.75119 | 18596 ft | 372 kts | 301° |
| 2026-05-03 21:11 | 20.00864 | -69.77435 | 18120 ft | 369 kts | 301° |
| 2026-05-03 21:12 | 20.02231 | -69.79731 | 17632 ft | 365 kts | 301° |
| 2026-05-03 21:12 | 20.03579 | -69.81997 | 17137 ft | 362 kts | 301° |
| 2026-05-03 21:12 | 20.04937 | -69.84283 | 16648 ft | 359 kts | 301° |
| 2026-05-03 21:12 | 20.06267 | -69.86523 | 16184 ft | 356 kts | 301° |
| 2026-05-03 21:13 | 20.07580 | -69.88735 | 15733 ft | 353 kts | 301° |
| 2026-05-03 21:13 | 20.08886 | -69.90937 | 15266 ft | 350 kts | 301° |
| 2026-05-03 21:13 | 20.10170 | -69.93106 | 15000 ft | 341 kts | 301° |
| 2026-05-03 21:13 | 20.11412 | -69.95201 | 14883 ft | 328 kts | 301° |
| 2026-05-03 21:14 | 20.12598 | -69.97205 | 14779 ft | 315 kts | 301° |
| 2026-05-03 21:14 | 20.13725 | -69.99108 | 14676 ft | 303 kts | 301° |
| 2026-05-03 21:14 | 20.14834 | -70.00984 | 14462 ft | 296 kts | 301° |
| 2026-05-03 21:14 | 20.15931 | -70.02843 | 14125 ft | 293 kts | 300° |
| 2026-05-03 21:15 | 20.16670 | -70.04818 | 13746 ft | 290 kts | 278° |
| 2026-05-03 21:15 | 20.16580 | -70.06934 | 13300 ft | 289 kts | 254° |
| 2026-05-03 21:15 | 20.15723 | -70.08869 | 12891 ft | 289 kts | 240° |
| 2026-05-03 21:15 | 20.14722 | -70.10715 | 12528 ft | 287 kts | 240° |
| 2026-05-03 21:16 | 20.13734 | -70.12545 | 12142 ft | 285 kts | 240° |
| 2026-05-03 21:16 | 20.12749 | -70.14379 | 11760 ft | 284 kts | 240° |
| 2026-05-03 21:16 | 20.11778 | -70.16192 | 11406 ft | 282 kts | 240° |
| 2026-05-03 21:16 | 20.10809 | -70.18006 | 11050 ft | 281 kts | 240° |
| 2026-05-03 21:17 | 20.09849 | -70.19803 | 10708 ft | 279 kts | 239° |
| 2026-05-03 21:17 | 20.09215 | -70.20990 | 10461 ft | 278 kts | 239° |
| 2026-05-03 21:17 | 20.07943 | -70.23370 | 10009 ft | 276 kts | 239° |
| 2026-05-03 21:17 | 20.07008 | -70.25118 | 9653 ft | 274 kts | 239° |
| 2026-05-03 21:18 | 20.06063 | -70.26882 | 9231 ft | 274 kts | 239° |
| 2026-05-03 21:18 | 20.05123 | -70.28634 | 8838 ft | 273 kts | 239° |
| 2026-05-03 21:18 | 20.04183 | -70.30387 | 8455 ft | 272 kts | 239° |
| 2026-05-03 21:18 | 20.03248 | -70.32130 | 8083 ft | 271 kts | 239° |
| 2026-05-03 21:19 | 20.02319 | -70.33862 | 7726 ft | 269 kts | 239° |
| 2026-05-03 21:19 | 20.01372 | -70.35625 | 7345 ft | 269 kts | 239° |
| 2026-05-03 21:19 | 20.00450 | -70.37343 | 7006 ft | 268 kts | 239° |
| 2026-05-03 21:19 | 19.99531 | -70.39054 | 6673 ft | 266 kts | 239° |
| 2026-05-03 21:20 | 19.98612 | -70.40765 | 6310 ft | 265 kts | 239° |
| 2026-05-03 21:20 | 19.97996 | -70.41912 | 6045 ft | 265 kts | 239° |
| 2026-05-03 21:20 | 19.97085 | -70.43610 | 5563 ft | 263 kts | 238° |
| 2026-05-03 21:20 | 19.96178 | -70.45298 | 5037 ft | 262 kts | 238° |
| 2026-05-03 21:21 | 19.95281 | -70.46965 | 4540 ft | 261 kts | 238° |
| 2026-05-03 21:21 | 19.94394 | -70.48616 | 4091 ft | 258 kts | 237° |
| 2026-05-03 21:21 | 19.93490 | -70.50303 | 3648 ft | 254 kts | 237° |
| 2026-05-03 21:21 | 19.92637 | -70.51896 | 3183 ft | 253 kts | 237° |
| 2026-05-03 21:22 | 19.91763 | -70.53521 | 2833 ft | 245 kts | 236° |
| 2026-05-03 21:22 | 19.90891 | -70.55137 | 2755 ft | 259 kts | 236° |
| 2026-05-03 21:22 | 19.90016 | -70.56759 | 2639 ft | 253 kts | 236° |
| 2026-05-03 21:22 | 19.89124 | -70.58411 | 2558 ft | 258 kts | 236° |
| 2026-05-03 21:23 | 19.88245 | -70.60040 | 2497 ft | 252 kts | 236° |
| 2026-05-03 21:23 | 19.87365 | -70.61675 | 2493 ft | 258 kts | 236° |
| 2026-05-03 21:23 | 19.86466 | -70.63338 | 2485 ft | 257 kts | 237° |
| 2026-05-03 21:23 | 19.85584 | -70.64967 | 2483 ft | 251 kts | 237° |
| 2026-05-03 21:24 | 19.84734 | -70.66541 | 2486 ft | 237 kts | 234° |
| 2026-05-03 21:24 | 19.83647 | -70.67691 | 2484 ft | 210 kts | 201° |
| 2026-05-03 21:24 | 19.82327 | -70.67992 | 2496 ft | 185 kts | 172° |
| 2026-05-03 21:24 | 19.81116 | -70.67656 | 2506 ft | 175 kts | 159° |
| 2026-05-03 21:25 | 19.80017 | -70.67284 | 2484 ft | 158 kts | 160° |
| 2026-05-03 21:25 | 19.79017 | -70.66964 | 2490 ft | 140 kts | 161° |
| 2026-05-03 21:25 | 19.78125 | -70.66679 | 2515 ft | 132 kts | 160° |
| 2026-05-03 21:25 | 19.77263 | -70.66411 | 2485 ft | 127 kts | 161° |
| 2026-05-03 21:26 | 19.76416 | -70.66141 | 2478 ft | 126 kts | 158° |
| 2026-05-03 21:26 | 19.75635 | -70.65708 | 2487 ft | 129 kts | 142° |
| 2026-05-03 21:26 | 19.74973 | -70.65028 | 2478 ft | 134 kts | 128° |
| 2026-05-03 21:26 | 19.74508 | -70.64170 | 2483 ft | 133 kts | 113° |
| 2026-05-03 21:27 | 19.74293 | -70.63253 | 2488 ft | 129 kts | 100° |
| 2026-05-03 21:27 | 19.74311 | -70.62279 | 2498 ft | 133 kts | 85° |
| 2026-05-03 21:27 | 19.74565 | -70.61294 | 2181 ft | 154 kts | 75° |
| 2026-05-03 21:27 | 19.74962 | -70.60119 | 1405 ft | 179 kts | 75° |
| 2026-05-03 21:28 | 19.75306 | -70.58874 | 459 ft | 177 kts | 79° |
| 2026-05-03 21:28 | 19.75596 | -70.57619 | 24 ft | 155 kts | 72° |
| 2026-05-03 21:28 | 19.75829 | -70.56806 | 26 ft | 66 kts | 73° |
| 2026-05-03 21:28 | 19.75925 | -70.56502 | 26 ft | 26 kts | 75° |
| 2026-05-03 21:29 | 19.75863 | -70.56424 | 30 ft | 15 kts | 161° |
| 2026-05-03 21:29 | 19.75821 | -70.56410 | 26 ft | 0 kts | 164° |
| 2026-05-03 21:30 | 19.75805 | -70.56405 | 27 ft | 7 kts | 165° |
| 2026-05-03 21:30 | 19.75712 | -70.56400 | 27 ft | 17 kts | 186° |
| 2026-05-03 21:31 | 19.75635 | -70.56387 | 25 ft | 7 kts | 162° |
| 2026-05-03 21:31 | 19.75633 | -70.56386 | 25 ft | 0 kts | 162° |